Time;durP1;ratioP1;P1;durP2;ratioP2;P2;SDS_P1;SDS_P2;PMS_P1;PMS_P2;Temp;Humidity;BMP_temperature;BMP_pressure;BME280_temperature;BME280_humidity;BME280_pressure;Samples;Min_cycle;Max_cycle;Signal;HPM_P1;HPM_P2
2023/10/07 00:01:33;;;;;;;5.00;3.60;;;;;;;5.50;100.00;98177.06;110177;1245;71396;-60
2023/10/07 00:04:05;;;;;;;3.70;2.50;;;;;;;5.45;100.00;98176.77;110193;1242;68528;-60
2023/10/07 00:06:41;;;;;;;6.70;4.10;;;;;;;5.40;100.00;98172.29;110173;1243;69349;-59
2023/10/07 00:09:12;;;;;;;5.20;3.60;;;;;;;5.37;100.00;98172.23;110164;1244;59695;-59
2023/10/07 00:11:46;;;;;;;6.10;3.90;;;;;;;5.33;100.00;98167.19;110181;1244;59648;-60
2023/10/07 00:14:17;;;;;;;4.90;3.40;;;;;;;5.31;100.00;98165.36;110155;1241;71391;-60
2023/10/07 00:16:50;;;;;;;6.00;4.40;;;;;;;5.30;100.00;98167.84;110158;1244;68973;-59
2023/10/07 00:19:21;;;;;;;4.90;3.70;;;;;;;5.26;100.00;98170.23;110146;1244;68544;-60
2023/10/07 00:21:59;;;;;;;6.00;3.60;;;;;;;5.21;100.00;98167.70;110140;1243;59713;-60
2023/10/07 00:24:36;;;;;;;7.10;3.50;;;;;;;5.17;100.00;98163.54;110140;1243;59753;-60
2023/10/07 00:27:18;;;;;;;5.70;3.40;;;;;;;5.15;100.00;98161.73;110165;1244;71199;-60
2023/10/07 00:29:54;;;;;;;4.60;3.30;;;;;;;5.10;100.00;98154.27;110172;1244;69278;-60
2023/10/07 00:32:30;;;;;;;4.20;3.20;;;;;;;5.04;100.00;98154.88;110131;1242;69265;-59
2023/10/07 00:35:01;;;;;;;5.40;3.90;;;;;;;4.99;100.00;98150.89;110197;1241;59743;-60
2023/10/07 00:37:35;;;;;;;5.00;3.60;;;;;;;4.95;100.00;98150.55;110169;1243;59757;-60
2023/10/07 00:40:54;;;;;;;7.10;2.90;;;;;;;4.92;100.00;98145.16;110179;1241;69644;-59
2023/10/07 00:43:03;;;;;;;5.40;2.80;;;;;;;4.90;100.00;98145.92;110097;1244;69088;-60
2023/10/07 00:45:36;;;;;;;6.20;4.00;;;;;;;4.87;100.00;98144.99;110127;1242;69311;-60
2023/10/07 00:48:11;;;;;;;8.80;4.50;;;;;;;4.84;100.00;98144.39;110117;1244;59681;-59
2023/10/07 00:50:46;;;;;;;5.50;4.00;;;;;;;4.83;100.00;98143.39;110117;1243;59725;-58
2023/10/07 00:53:24;;;;;;;5.30;3.60;;;;;;;4.82;100.00;98139.46;110116;1241;71414;-60
2023/10/07 00:55:59;;;;;;;4.80;3.10;;;;;;;4.80;100.00;98135.90;110118;1241;69272;-60
2023/10/07 00:58:36;;;;;;;5.00;3.90;;;;;;;4.80;100.00;98134.72;110085;1241;69294;-59
2023/10/07 01:01:09;;;;;;;5.30;3.50;;;;;;;4.81;100.00;98131.60;110116;1242;60117;-60
2023/10/07 01:03:48;;;;;;;5.40;3.70;;;;;;;4.81;100.00;98127.27;110128;1244;59699;-60
2023/10/07 01:06:26;;;;;;;7.00;4.00;;;;;;;4.80;100.00;98131.60;110174;1241;70541;-60
2023/10/07 01:09:11;;;;;;;5.00;3.20;;;;;;;4.81;100.00;98126.40;110147;1242;68767;-60
2023/10/07 01:11:45;;;;;;;;;;;;;;;4.81;100.00;98124.46;110125;1241;68877;-59
2023/10/07 01:14:20;;;;;;;7.00;4.70;;;;;;;4.80;100.00;98124.86;110105;1242;59731;-59
2023/10/07 01:16:56;;;;;;;6.00;4.30;;;;;;;4.74;100.00;98122.86;110119;1241;59745;-60
2023/10/07 01:19:35;;;;;;;6.90;4.30;;;;;;;4.68;100.00;98123.41;110116;1243;71548;-60
2023/10/07 01:22:09;;;;;;;5.70;4.00;;;;;;;4.64;100.00;98124.95;110147;1243;69327;-60
2023/10/07 01:24:44;;;;;;;6.70;4.30;;;;;;;4.61;100.00;98123.67;110158;1244;69336;-60
2023/10/07 01:30:02;;;;;;;6.70;4.50;;;;;;;4.56;100.00;98121.63;110135;1243;59674;-58
2023/10/07 01:32:42;;;;;;;5.90;4.30;;;;;;;4.51;100.00;98124.03;110123;1241;70659;-60
2023/10/07 01:35:25;;;;;;;6.00;4.40;;;;;;;4.47;100.00;98124.88;110112;1243;69627;-60
2023/10/07 01:38:08;;;;;;;7.40;4.60;;;;;;;4.44;100.00;98121.73;110103;1241;68441;-59
2023/10/07 01:43:29;;;;;;;7.50;5.00;;;;;;;4.36;100.00;98108.23;110169;1243;59789;-59
2023/10/07 01:46:07;;;;;;;5.60;3.80;;;;;;;4.30;100.00;98107.05;110172;1242;70617;-58
2023/10/07 01:48:49;;;;;;;4.80;3.80;;;;;;;4.25;100.00;98105.01;110161;1241;68729;-59
2023/10/07 01:51:22;;;;;;;6.80;4.50;;;;;;;4.22;100.00;98097.02;110152;1243;68569;-59
2023/10/07 01:53:58;;;;;;;5.70;4.20;;;;;;;4.20;100.00;98097.08;110141;1244;59723;-58
2023/10/07 01:56:34;;;;;;;5.90;4.40;;;;;;;4.17;100.00;98096.67;110227;1244;59649;-58
2023/10/07 02:01:54;;;;;;;6.70;4.50;;;;;;;4.17;100.00;98091.66;110174;1241;69657;-60
2023/10/07 02:04:26;;;;;;;7.60;4.30;;;;;;;4.16;100.00;98089.45;110187;1242;69117;-60
2023/10/07 02:06:59;;;;;;;8.10;4.60;;;;;;;4.17;100.00;98085.28;110227;1242;59679;-60
2023/10/07 02:09:40;;;;;;;5.80;4.10;;;;;;;4.17;100.00;98081.34;110272;1242;59663;-60
2023/10/07 02:12:18;;;;;;;5.70;3.40;;;;;;;4.15;100.00;98077.23;110252;1242;70701;-60
2023/10/07 02:14:49;;;;;;;6.30;4.30;;;;;;;4.15;100.00;98073.44;110178;1244;69751;-60
2023/10/07 02:17:25;;;;;;;5.20;3.60;;;;;;;4.14;100.00;98070.05;110241;1241;68284;-59
2023/10/07 02:20:20;;;;;;;5.50;3.90;;;;;;;4.12;100.00;98073.23;110102;1244;59737;-60
2023/10/07 02:22:51;;;;;;;5.60;3.70;;;;;;;4.07;100.00;98081.15;110192;1243;59628;-60
2023/10/07 02:25:29;;;;;;;4.80;3.20;;;;;;;4.05;100.00;98086.05;110143;1241;71425;-59
2023/10/07 02:28:00;;;;;;;6.20;4.10;;;;;;;4.02;100.00;98084.95;110188;1245;69251;-61
2023/10/07 02:30:38;;;;;;;7.70;4.00;;;;;;;4.01;100.00;98081.18;110149;1243;69210;-60
2023/10/07 02:33:14;;;;;;;6.70;4.50;;;;;;;3.99;100.00;98072.29;110236;1241;59703;-61
2023/10/07 02:35:55;;;;;;;8.50;4.80;;;;;;;3.96;100.00;98074.96;110240;1243;59733;-60
2023/10/07 02:38:37;;;;;;;6.00;3.70;;;;;;;3.93;100.00;98076.63;110155;1241;70635;-60
2023/10/07 02:41:25;;;;;;;6.80;4.60;;;;;;;3.90;100.00;98077.44;110153;1241;69656;-60
2023/10/07 02:44:15;;;;;;;6.20;4.50;;;;;;;3.88;100.00;98079.77;110235;1245;68877;-60
2023/10/07 02:46:54;;;;;;;8.70;5.70;;;;;;;3.86;100.00;98080.17;110177;1241;59689;-62
2023/10/07 02:49:28;;;;;;;9.50;6.30;;;;;;;3.87;100.00;98080.32;110233;1240;59704;-58
2023/10/07 02:52:05;;;;;;;8.90;5.30;;;;;;;3.89;100.00;98081.44;110159;1244;71090;-59
2023/10/07 02:54:41;;;;;;;8.70;6.00;;;;;;;3.88;100.00;98085.25;110182;1244;69245;-58
2023/10/07 02:57:24;;;;;;;7.60;5.20;;;;;;;3.83;100.00;98086.83;110169;1243;69367;-58
2023/10/07 03:00:10;;;;;;;6.10;4.20;;;;;;;3.77;100.00;98084.46;110174;1241;59774;-59
2023/10/07 03:02:51;;;;;;;5.80;3.90;;;;;;;3.71;100.00;98084.84;110145;1244;59734;-58
2023/10/07 03:05:29;;;;;;;6.10;4.00;;;;;;;3.65;100.00;98087.29;110152;1241;70560;-59
2023/10/07 03:08:03;;;;;;;7.80;4.70;;;;;;;3.60;100.00;98082.98;110142;1244;69393;-57
2023/10/07 03:10:44;;;;;;;6.10;4.10;;;;;;;3.56;100.00;98080.69;110128;1244;69281;-59
2023/10/07 03:13:22;;;;;;;9.40;5.70;;;;;;;3.54;100.00;98080.24;110128;1244;59686;-59
2023/10/07 03:18:56;;;;;;;5.80;4.20;;;;;;;3.52;100.00;98084.11;110138;1243;70647;-59
2023/10/07 03:24:14;;;;;;;7.70;5.20;;;;;;;3.49;100.00;98088.17;110170;1244;68616;-59
2023/10/07 03:26:53;;;;;;;8.10;5.10;;;;;;;3.48;100.00;98086.13;110115;1243;59717;-59
2023/10/07 03:29:31;;;;;;;5.90;4.30;;;;;;;3.49;100.00;98089.04;110155;1242;59670;-61
2023/10/07 03:32:12;;;;;;;5.80;4.50;;;;;;;3.49;100.00;98089.55;110108;1244;70686;-59
2023/10/07 03:34:45;;;;;;;6.90;5.50;;;;;;;3.49;100.00;98093.01;110125;1244;69270;-60
2023/10/07 03:37:16;;;;;;;6.50;4.30;;;;;;;3.50;100.00;98091.05;110099;1243;68349;-59
2023/10/07 03:40:04;;;;;;;6.10;4.40;;;;;;;3.51;100.00;98091.20;110180;1241;59682;-60
2023/10/07 03:42:37;;;;;;;7.40;4.30;;;;;;;3.50;100.00;98088.96;110168;1244;59695;-60
2023/10/07 03:45:14;;;;;;;5.40;4.00;;;;;;;3.49;100.00;98093.14;110143;1243;71235;-58
2023/10/07 03:47:46;;;;;;;5.80;3.70;;;;;;;3.48;100.00;98095.96;110122;1241;69210;-60
2023/10/07 03:50:29;;;;;;;5.40;4.00;;;;;;;3.44;100.00;98094.54;110140;1244;69309;-59
2023/10/07 03:53:05;;;;;;;5.30;3.80;;;;;;;3.43;100.00;98096.80;110133;1244;59734;-60
2023/10/07 03:55:40;;;;;;;5.20;3.40;;;;;;;3.42;100.00;98092.89;110130;1243;59704;-58
2023/10/07 03:58:19;;;;;;;6.00;4.40;;;;;;;3.43;100.00;98095.29;110242;1242;72005;-60
2023/10/07 04:00:51;;;;;;;7.30;6.20;;;;;;;3.41;100.00;98088.43;110212;1242;68273;-57
2023/10/07 04:03:23;;;;;;;6.90;5.00;;;;;;;3.41;100.00;98081.89;110200;1241;68543;-57
2023/10/07 04:05:54;;;;;;;12.00;7.10;;;;;;;3.42;100.00;98075.31;110185;1242;59696;-57
2023/10/07 04:08:23;;;;;;;11.70;6.90;;;;;;;3.41;100.00;98072.08;110172;1241;59659;-58
2023/10/07 04:10:54;;;;;;;6.90;5.20;;;;;;;3.38;100.00;98071.64;110197;1250;69769;-57
2023/10/07 04:13:24;;;;;;;7.50;5.10;;;;;;;3.36;100.00;98073.63;110203;1242;69122;-58
2023/10/07 04:15:57;;;;;;;6.00;3.70;;;;;;;3.31;100.00;98069.96;110189;1245;68647;-59
2023/10/07 04:18:34;;;;;;;8.70;5.70;;;;;;;3.29;100.00;98074.86;110188;1241;59849;-58
2023/10/07 04:21:04;;;;;;;8.80;5.40;;;;;;;3.26;100.00;98071.19;110188;1243;60005;-58
2023/10/07 04:23:35;;;;;;;19.60;10.90;;;;;;;3.24;100.00;98067.63;110161;1241;71462;-59
2023/10/07 04:26:11;;;;;;;24.40;14.70;;;;;;;3.24;100.00;98065.58;110196;1241;69155;-60
2023/10/07 04:28:42;;;;;;;17.80;11.20;;;;;;;3.24;100.00;98065.05;110195;1243;69107;-57
2023/10/07 04:31:13;;;;;;;15.80;9.60;;;;;;;3.25;100.00;98059.19;110194;1241;59712;-58
2023/10/07 04:33:47;;;;;;;13.90;8.90;;;;;;;3.27;100.00;98057.89;110188;1243;59725;-59
2023/10/07 04:36:54;;;;;;;9.90;6.80;;;;;;;3.28;100.00;98060.59;110154;1241;70960;-60
2023/10/07 04:39:37;;;;;;;11.00;6.80;;;;;;;3.30;100.00;98060.02;110211;1242;69131;-58
2023/10/07 04:42:20;;;;;;;11.20;7.10;;;;;;;3.32;100.00;98060.64;110201;1242;68449;-59
2023/10/07 04:47:37;;;;;;;12.90;7.90;;;;;;;3.36;100.00;98058.29;110195;1241;59681;-58
2023/10/07 04:52:41;;;;;;;22.70;13.20;;;;;;;3.46;100.00;98051.89;110198;1242;68235;-60
2023/10/07 04:55:12;;;;;;;22.30;12.90;;;;;;;3.51;100.00;98054.32;110189;1240;69866;-59
2023/10/07 04:57:56;;;;;;;19.50;12.20;;;;;;;3.50;100.00;98052.80;110180;1242;59685;-57
2023/10/07 05:03:08;;;;;;;24.20;13.50;;;;;;;3.52;100.00;98056.70;110154;1243;70196;-59
2023/10/07 05:05:43;;;;;;;25.50;14.70;;;;;;;3.56;100.00;98056.56;110156;1243;68551;-58
2023/10/07 05:08:22;;;;;;;23.20;13.90;;;;;;;3.62;100.00;98057.03;110151;1244;68538;-60
2023/10/07 05:10:54;;;;;;;22.00;13.90;;;;;;;3.69;100.00;98062.13;110131;1243;60088;-60
2023/10/07 05:13:24;;;;;;;24.30;15.10;;;;;;;3.75;100.00;98061.23;110153;1244;59699;-60
2023/10/07 05:15:55;;;;;;;20.30;12.30;;;;;;;3.82;100.00;98064.43;110173;1241;72027;-59
2023/10/07 05:18:26;;;;;;;17.20;10.70;;;;;;;3.91;100.00;98068.45;110186;1244;68806;-60
2023/10/07 05:20:57;;;;;;;18.00;11.10;;;;;;;4.04;100.00;98069.52;110144;1241;70017;-59
2023/10/07 05:23:27;;;;;;;14.50;10.20;;;;;;;4.18;100.00;98071.63;110114;1243;59637;-60
2023/10/07 05:26:03;;;;;;;;;;;;;;;4.32;100.00;98081.80;110187;1241;59674;-59
2023/10/07 05:28:33;;;;;;;16.80;9.00;;;;;;;4.50;100.00;98084.89;110156;1244;71434;-60
2023/10/07 05:31:05;;;;;;;14.80;7.90;;;;;;;4.79;100.00;98088.45;110162;1243;69265;-60
2023/10/07 05:33:35;;;;;;;9.90;7.20;;;;;;;5.12;100.00;98095.28;110123;1243;68419;-59
2023/10/07 05:36:13;;;;;;;;;;;;;;;5.41;100.00;98092.55;110221;1242;59697;-60
2023/10/07 05:38:44;;;;;;;13.50;7.60;;;;;;;5.64;100.00;98097.98;110167;1244;59643;-60
2023/10/07 05:41:15;;;;;;;10.50;6.90;;;;;;;5.85;100.00;98102.62;110161;1242;71416;-60
2023/10/07 05:43:48;;;;;;;10.20;6.70;;;;;;;6.03;100.00;98110.52;110189;1243;69091;-59
2023/10/07 05:46:19;;;;;;;10.90;7.10;;;;;;;6.27;100.00;98114.52;110147;1242;68400;-60
2023/10/07 05:48:51;;;;;;;9.60;6.50;;;;;;;6.57;100.00;98109.02;110129;1244;59750;-60
2023/10/07 05:51:20;;;;;;;9.90;7.40;;;;;;;6.74;100.00;98105.30;110173;1243;59698;-60
2023/10/07 05:53:51;;;;;;;11.80;8.60;;;;;;;6.91;100.00;98101.56;110075;1241;72332;-60
2023/10/07 05:56:22;;;;;;;;;;;;;;;7.00;100.00;98101.66;110135;1244;69851;-60
2023/10/07 05:58:51;;;;;;;11.40;8.60;;;;;;;7.18;100.00;98102.35;110128;1244;69251;-58
2023/10/07 06:01:21;;;;;;;13.30;8.80;;;;;;;7.39;100.00;98100.63;110146;1244;59743;-61
2023/10/07 06:03:52;;;;;;;10.40;7.80;;;;;;;7.64;100.00;98095.73;110136;1244;59748;-61
2023/10/07 06:06:21;;;;;;;11.70;8.40;;;;;;;7.76;100.00;98097.74;110178;1242;72572;-59
2023/10/07 06:08:52;;;;;;;16.80;11.70;;;;;;;8.08;100.00;98096.45;110157;1244;69083;-60
2023/10/07 06:11:23;;;;;;;12.90;9.50;;;;;;;8.25;100.00;98095.60;110129;1243;69101;-59
2023/10/07 06:13:52;;;;;;;13.80;9.20;;;;;;;8.51;100.00;98087.64;110157;1243;59736;-59
2023/10/07 06:16:21;;;;;;;11.30;9.20;;;;;;;8.63;99.96;98088.52;110151;1244;59693;-60
2023/10/07 06:18:51;;;;;;;12.30;8.30;;;;;;;8.91;99.98;98087.34;110164;1242;71966;-60
2023/10/07 06:21:27;;;;;;;8.90;7.40;;;;;;;9.16;97.91;98086.83;110181;1244;69113;-59
2023/10/07 06:24:00;;;;;;;10.40;7.40;;;;;;;9.56;96.94;98088.71;110160;1244;67662;-59
2023/10/07 06:26:30;;;;;;;12.00;8.00;;;;;;;9.78;94.71;98087.80;110134;1243;59728;-60
2023/10/07 06:29:06;;;;;;;11.90;8.10;;;;;;;10.10;93.77;98088.33;110143;1244;59709;-60
2023/10/07 06:31:40;;;;;;;9.20;7.20;;;;;;;10.41;93.73;98080.36;110128;1242;71308;-60
2023/10/07 06:34:14;;;;;;;9.30;7.10;;;;;;;10.67;90.66;98083.81;110122;1244;68536;-60
2023/10/07 06:36:43;;;;;;;9.70;7.60;;;;;;;10.90;89.26;98081.64;110108;1242;69292;-60
2023/10/07 06:39:12;;;;;;;8.00;6.70;;;;;;;11.25;88.16;98082.04;110089;1242;59708;-60
2023/10/07 06:41:43;;;;;;;8.80;6.80;;;;;;;11.46;86.60;98085.91;110129;1244;60146;-60
2023/10/07 06:44:15;;;;;;;10.30;6.80;;;;;;;11.74;85.15;98085.11;110123;1241;71960;-60
2023/10/07 06:46:46;;;;;;;7.80;6.20;;;;;;;12.04;82.87;98084.85;110108;1243;70490;-60
2023/10/07 06:49:18;;;;;;;;;;;;;;;12.24;81.97;98082.97;110143;1243;69267;-60
2023/10/07 06:51:53;;;;;;;7.30;5.00;;;;;;;12.38;81.41;98088.09;110136;1244;59750;-60
2023/10/07 06:54:25;;;;;;;7.00;5.30;;;;;;;12.33;81.26;98089.82;110122;1242;59691;-60
2023/10/07 06:56:54;;;;;;;7.30;6.00;;;;;;;12.42;82.42;98091.33;110119;1244;71335;-60
2023/10/07 06:59:27;;;;;;;8.20;6.40;;;;;;;12.48;81.43;98090.52;110127;1243;69624;-60
2023/10/07 07:02:05;;;;;;;8.40;6.50;;;;;;;12.69;80.75;98089.42;110144;1244;69910;-60
2023/10/07 07:04:36;;;;;;;9.60;6.20;;;;;;;12.79;81.68;98089.77;110150;1244;59734;-59
2023/10/07 07:07:12;;;;;;;7.80;6.40;;;;;;;13.29;80.79;98096.35;110139;1242;59668;-59
2023/10/07 07:09:41;;;;;;;8.30;5.50;;;;;;;13.52;78.46;98099.18;110127;1242;72043;-59
2023/10/07 07:12:16;;;;;;;8.40;6.40;;;;;;;13.59;78.27;98099.77;110094;1244;69911;-60
2023/10/07 07:14:59;;;;;;;8.60;6.50;;;;;;;13.93;77.24;98099.30;110127;1243;69302;-61
2023/10/07 07:17:29;;;;;;;8.50;6.70;;;;;;;14.25;75.01;98098.80;110145;1244;59738;-59
2023/10/07 07:22:45;;;;;;;6.70;5.40;;;;;;;14.72;73.61;98087.40;110133;1243;71230;-62
2023/10/07 07:27:52;;;;;;;9.00;6.60;;;;;;;15.23;69.89;98083.32;110155;1244;69882;-62
2023/10/07 07:30:35;;;;;;;8.30;5.90;;;;;;;15.46;69.16;98084.77;110059;1243;59664;-60
2023/10/07 07:33:11;;;;;;;7.40;5.80;;;;;;;15.83;67.30;98086.73;110149;1242;59627;-60
2023/10/07 07:35:43;;;;;;;9.90;7.10;;;;;;;16.14;66.02;98087.26;110111;1243;71411;-60
2023/10/07 07:38:29;;;;;;;7.90;5.80;;;;;;;15.85;65.97;98085.44;110147;1243;70172;-62
2023/10/07 07:41:08;;;;;;;7.20;6.20;;;;;;;15.99;65.71;98078.98;110124;1242;69874;-60
2023/10/07 07:43:39;;;;;;;8.40;7.20;;;;;;;16.77;63.69;98075.79;110160;1243;59745;-61
2023/10/07 07:48:50;;;;;;;7.10;5.30;;;;;;;17.98;58.64;98067.77;110128;1241;72724;-61
2023/10/07 07:51:24;;;;;;;6.50;4.70;;;;;;;18.24;57.81;98062.77;110186;1243;69811;-61
2023/10/07 07:53:53;;;;;;;7.80;5.70;;;;;;;18.60;57.10;98060.74;110140;1243;69443;-61
2023/10/07 07:56:24;;;;;;;6.20;4.90;;;;;;;18.62;54.81;98057.67;110166;1244;59780;-61
2023/10/07 07:58:53;;;;;;;6.60;5.20;;;;;;;18.44;54.88;98058.02;110149;1244;59681;-61
2023/10/07 08:01:28;;;;;;;7.50;5.30;;;;;;;18.96;54.83;98061.73;110185;1243;70641;-61
2023/10/07 08:04:09;;;;;;;6.20;4.70;;;;;;;19.40;52.89;98062.72;110094;1244;69835;-60
2023/10/07 08:06:39;;;;;;;8.00;4.40;;;;;;;19.56;52.06;98058.44;110166;1243;69186;-60
2023/10/07 08:09:10;;;;;;;7.30;5.40;;;;;;;19.85;50.12;98057.91;110133;1243;59785;-60
2023/10/07 08:11:40;;;;;;;6.00;4.80;;;;;;;19.94;48.61;98057.10;110171;1244;59745;-60
2023/10/07 08:14:11;;;;;;;7.50;4.70;;;;;;;20.11;49.05;98054.70;110203;1241;71411;-60
2023/10/07 08:16:50;;;;;;;6.40;5.20;;;;;;;20.75;48.95;98055.72;110080;1242;69195;-60
2023/10/07 08:19:23;;;;;;;7.40;6.20;;;;;;;20.36;47.24;98054.96;110124;1241;69096;-60
2023/10/07 08:21:53;;;;;;;7.20;5.10;;;;;;;20.35;46.48;98054.19;110112;1243;59726;-60
2023/10/07 08:24:23;;;;;;;5.80;4.20;;;;;;;20.37;47.48;98052.73;110105;1244;59754;-60
2023/10/07 08:26:59;;;;;;;6.60;5.10;;;;;;;20.97;47.57;98053.08;110154;1244;72380;-61
2023/10/07 08:29:34;;;;;;;7.10;5.10;;;;;;;20.84;45.92;98053.40;110117;1243;69235;-60
2023/10/07 08:35:17;;;;;;;6.20;4.80;;;;;;;20.80;46.66;98040.89;109694;1247;59817;-61
2023/10/07 08:37:47;;;;;;;;;;;;;;;21.34;45.06;98040.70;110064;1242;59709;-60
2023/10/07 08:40:29;;;;;;;7.40;5.90;;;;;;;21.98;43.91;98038.84;110131;1242;71193;-60
2023/10/07 08:42:59;;;;;;;6.80;5.40;;;;;;;22.10;44.02;98040.21;110125;1244;68486;-60
2023/10/07 08:45:28;;;;;;;6.90;5.60;;;;;;;22.40;43.01;98036.59;110107;1245;69863;-60
2023/10/07 08:50:55;;;;;;;6.90;5.60;;;;;;;22.64;41.91;98031.58;110130;1243;60056;-61
2023/10/07 08:53:29;;;;;;;6.60;4.60;;;;;;;22.27;41.07;98031.22;110118;1244;71927;-60
2023/10/07 08:56:04;;;;;;;7.50;5.60;;;;;;;21.80;42.48;98031.59;110180;1242;69211;-60
2023/10/07 08:58:34;;;;;;;7.00;4.90;;;;;;;21.73;42.15;98029.86;110080;1243;69803;-60
2023/10/07 09:01:07;;;;;;;6.10;4.60;;;;;;;21.31;43.42;98034.60;110081;1244;59704;-61
2023/10/07 09:03:39;;;;;;;6.80;4.80;;;;;;;21.04;43.40;98030.04;110089;1242;59675;-61
2023/10/07 09:06:10;;;;;;;6.10;4.00;;;;;;;20.85;43.87;98026.04;110110;1243;71006;-62
2023/10/07 09:08:43;;;;;;;6.10;4.80;;;;;;;20.73;44.22;98022.38;109677;1242;562585;-61
2023/10/07 09:11:13;;;;;;;7.60;4.60;;;;;;;21.81;42.69;98028.16;110127;1243;69286;-61
2023/10/07 09:13:42;;;;;;;6.70;4.10;;;;;;;21.26;42.52;98028.21;110116;1244;59708;-59
2023/10/07 09:16:14;;;;;;;6.50;4.60;;;;;;;20.51;44.01;98028.25;110110;1244;59676;-60
2023/10/07 09:18:44;;;;;;;6.40;4.60;;;;;;;21.47;43.09;98028.80;110141;1244;71992;-61
2023/10/07 09:21:21;;;;;;;5.60;4.30;;;;;;;21.89;42.28;98032.47;110130;1243;69312;-62
2023/10/07 09:23:59;;;;;;;6.30;4.80;;;;;;;21.61;42.39;98028.42;110126;1244;69383;-60
2023/10/07 09:26:41;;;;;;;7.30;5.00;;;;;;;22.18;42.24;98021.27;110109;1243;59679;-61
2023/10/07 09:29:15;;;;;;;8.00;5.70;;;;;;;22.77;40.65;98018.16;110165;1244;59672;-60
2023/10/07 09:31:56;;;;;;;5.40;4.40;;;;;;;22.98;39.89;98014.07;110175;1244;71986;-60
2023/10/07 09:34:41;;;;;;;7.20;5.20;;;;;;;22.49;39.90;98013.35;110145;1245;68377;-61
2023/10/07 09:37:20;;;;;;;6.10;4.00;;;;;;;22.80;38.96;98010.35;110083;1243;69174;-61
2023/10/07 09:40:19;;;;;;;8.90;5.80;;;;;;;22.85;40.15;98001.66;110089;1243;59741;-60
2023/10/07 09:43:08;;;;;;;6.50;5.10;;;;;;;23.59;38.27;98006.77;110132;1241;59692;-60
2023/10/07 09:45:38;;;;;;;5.50;4.00;;;;;;;22.74;39.73;97999.60;110110;1250;70442;-60
2023/10/07 09:48:09;;;;;;;5.20;4.00;;;;;;;23.67;38.82;97996.20;110126;1244;68380;-60
2023/10/07 09:50:49;;;;;;;7.80;4.80;;;;;;;23.76;37.81;97988.20;110088;1244;69850;-60
2023/10/07 09:53:41;;;;;;;9.00;7.00;;;;;;;23.69;37.92;97985.39;110084;1244;59752;-60
2023/10/07 09:56:46;;;;;;;8.90;5.80;;;;;;;23.56;37.78;97980.23;110094;1244;59682;-61
2023/10/07 09:59:56;;;;;;;7.80;6.30;;;;;;;23.59;37.54;97974.20;109949;1242;71192;-60
2023/10/07 10:02:26;;;;;;;8.20;6.40;;;;;;;24.25;37.50;97967.98;109620;1250;69265;-61
2023/10/07 10:05:26;;;;;;;8.30;6.40;;;;;;;24.64;35.93;97963.11;110147;1243;69279;-61
2023/10/07 10:08:27;;;;;;;8.50;6.90;;;;;;;24.56;36.27;97955.73;110155;1243;60208;-62
2023/10/07 10:11:08;;;;;;;8.30;6.20;;;;;;;24.19;36.54;97956.24;110207;1243;59684;-60
2023/10/07 10:16:18;;;;;;;9.60;7.80;;;;;;;25.50;34.80;97953.88;110141;1242;69715;-62
2023/10/07 10:18:51;;;;;;;8.90;8.00;;;;;;;25.74;33.33;97943.30;110147;1243;69379;-60
2023/10/07 10:21:23;;;;;;;9.30;6.50;;;;;;;25.54;33.25;97942.30;110195;1243;59702;-61
2023/10/07 10:23:52;;;;;;;8.80;7.30;;;;;;;25.49;33.62;97937.10;110168;1244;60141;-61
2023/10/07 10:26:23;;;;;;;8.90;7.20;;;;;;;25.17;34.33;97932.36;110158;1244;71945;-61
2023/10/07 10:29:03;;;;;;;7.80;6.30;;;;;;;25.38;34.63;97929.39;110143;1243;68877;-60
2023/10/07 10:31:34;;;;;;;9.80;6.40;;;;;;;26.11;33.31;97922.03;110159;1244;69871;-60
2023/10/07 10:34:05;;;;;;;7.30;6.00;;;;;;;26.20;32.71;97911.64;110143;1241;59684;-60
2023/10/07 10:36:43;;;;;;;7.60;6.30;;;;;;;26.43;31.67;97912.20;110169;1244;59595;-61
2023/10/07 10:39:25;;;;;;;10.10;7.80;;;;;;;26.17;32.15;97900.74;110168;1244;71278;-62
2023/10/07 10:42:02;;;;;;;7.90;6.90;;;;;;;25.65;33.26;97903.05;110171;1244;69823;-60
2023/10/07 10:44:38;;;;;;;7.50;5.80;;;;;;;26.01;32.72;97889.58;110114;1244;69605;-60
2023/10/07 10:47:07;;;;;;;8.50;7.10;;;;;;;26.48;31.61;97882.96;110101;1244;59759;-60
2023/10/07 10:49:37;;;;;;;8.20;5.90;;;;;;;25.88;31.77;97880.91;110144;1244;59799;-60
2023/10/07 10:52:08;;;;;;;10.50;6.10;;;;;;;25.52;31.52;97875.93;110139;1244;70779;-60
2023/10/07 10:54:39;;;;;;;5.90;5.00;;;;;;;24.66;33.17;97871.08;110135;1243;68313;-60
2023/10/07 10:57:14;;;;;;;7.60;5.00;;;;;;;25.41;32.98;97867.40;110131;1243;69262;-60
2023/10/07 10:59:47;;;;;;;6.40;4.50;;;;;;;26.47;32.06;97857.64;110106;1242;60169;-60
2023/10/07 11:02:20;;;;;;;8.60;4.70;;;;;;;26.92;30.27;97852.81;110104;1243;59772;-60
2023/10/07 11:04:51;;;;;;;6.20;4.80;;;;;;;25.30;31.81;97854.29;110120;1241;72188;-60
2023/10/07 11:07:24;;;;;;;6.00;4.40;;;;;;;24.78;32.54;97854.06;110166;1243;69205;-62
2023/10/07 11:09:54;;;;;;;6.70;4.00;;;;;;;25.12;32.20;97848.02;110152;1243;69320;-62
2023/10/07 11:12:27;;;;;;;6.70;4.50;;;;;;;26.16;31.23;97842.02;110126;1244;59697;-62
2023/10/07 11:15:06;;;;;;;5.60;3.80;;;;;;;26.64;30.15;97841.17;110144;1244;59650;-62
2023/10/07 11:17:41;;;;;;;;;;;;;;;27.24;29.67;97832.34;110108;1243;72065;-59
2023/10/07 11:20:19;;;;;;;6.70;4.40;;;;;;;27.25;29.09;97832.68;110124;1244;68490;-60
2023/10/07 11:22:50;;;;;;;5.20;3.40;;;;;;;27.03;28.87;97826.27;110108;1243;69272;-60
2023/10/07 11:25:24;;;;;;;5.10;3.90;;;;;;;27.22;29.69;97820.70;110141;1243;59682;-60
2023/10/07 11:27:54;;;;;;;5.80;3.70;;;;;;;27.54;28.88;97818.90;110130;1245;59678;-61
2023/10/07 11:30:24;;;;;;;7.60;3.60;;;;;;;28.13;28.89;97812.53;110128;1241;70758;-61
2023/10/07 11:32:54;;;;;;;6.80;4.10;;;;;;;28.01;28.51;97811.63;110128;1244;69811;-61
2023/10/07 11:35:27;;;;;;;6.20;3.90;;;;;;;28.13;28.01;97805.54;110125;1244;69401;-61
2023/10/07 11:38:02;;;;;;;5.70;3.50;;;;;;;27.43;28.46;97803.95;110165;1246;59743;-61
2023/10/07 11:40:32;;;;;;;5.90;4.20;;;;;;;26.12;30.12;97802.45;110194;1244;59750;-61
2023/10/07 11:43:04;;;;;;;7.10;3.50;;;;;;;26.79;29.43;97796.70;110146;1244;70705;-61
2023/10/07 11:45:36;;;;;;;4.90;4.10;;;;;;;27.14;29.33;97793.88;110142;1244;69280;-60
2023/10/07 11:48:08;;;;;;;6.20;3.20;;;;;;;27.25;28.62;97791.04;110115;1244;69768;-61
2023/10/07 11:50:37;;;;;;;6.30;4.20;;;;;;;26.58;29.29;97789.52;110116;1244;59735;-61
2023/10/07 11:53:07;;;;;;;3.90;2.70;;;;;;;26.25;29.51;97784.70;110138;1244;59730;-60
2023/10/07 11:55:37;;;;;;;4.70;3.10;;;;;;;27.21;29.27;97779.73;110144;1242;71874;-62
2023/10/07 11:58:07;;;;;;;7.80;4.20;;;;;;;28.20;28.31;97782.11;110120;1244;68800;-61
2023/10/07 12:00:38;;;;;;;5.00;3.00;;;;;;;27.35;28.24;97775.63;110096;1244;69256;-60
2023/10/07 12:03:07;;;;;;;6.60;3.00;;;;;;;27.63;28.09;97773.40;110122;1242;59684;-60
2023/10/07 12:05:42;;;;;;;6.00;3.40;;;;;;;28.27;27.63;97769.92;110119;1241;59764;-61
2023/10/07 12:08:13;;;;;;;4.40;2.90;;;;;;;28.59;27.30;97770.73;110131;1244;71908;-60
2023/10/07 12:10:43;;;;;;;5.80;3.90;;;;;;;27.71;27.26;97767.80;110160;1242;69116;-61
2023/10/07 12:13:14;;;;;;;5.70;3.00;;;;;;;27.37;28.09;97769.45;110133;1242;70259;-61
2023/10/07 12:15:43;;;;;;;3.80;2.30;;;;;;;27.20;28.22;97762.85;110086;1244;59809;-60
2023/10/07 12:18:33;;;;;;;4.40;2.80;;;;;;;27.57;27.82;97759.05;110199;1244;59711;-60
2023/10/07 12:21:11;;;;;;;6.00;3.70;;;;;;;27.25;27.98;97757.16;110101;1244;71884;-60
2023/10/07 12:23:44;;;;;;;6.10;3.70;;;;;;;26.13;29.31;97756.54;110104;1244;69694;-60
2023/10/07 12:26:15;;;;;;;6.90;3.60;;;;;;;25.01;30.41;97756.47;110144;1244;69349;-61
2023/10/07 12:28:48;;;;;;;5.60;4.10;;;;;;;25.04;30.87;97754.20;110153;1243;59818;-60
2023/10/07 12:31:20;;;;;;;4.20;2.90;;;;;;;25.44;30.34;97748.79;110251;1243;59754;-61
2023/10/07 12:33:50;;;;;;;5.80;4.10;;;;;;;25.99;30.01;97752.64;110135;1243;71932;-60
2023/10/07 12:36:20;;;;;;;4.10;2.70;;;;;;;25.65;30.60;97752.66;110082;1245;69179;-61
2023/10/07 12:38:49;;;;;;;3.80;2.90;;;;;;;25.73;31.21;97747.12;110065;1244;69869;-62